Gainesboro, TN (38562)

9:31 PM CST on January 22, 2017 (GMT -0600)
3D Farm | | Change Station

Elev 1022 ft 36.20 °N, 85.54 °W | Updated 16 seconds ago

Overcast
Overcast
54.9 °F
Feels Like 54.9 °F
N
11.4
Wind Variable Wind from East

Today
High -- | Low -- °F
--% Chance of Precip.
Yesterday
High -- | Low -- °F
Precip. -- in
Pressure 29.18 in
Visibility 10.0 miles
Clouds Overcast 700 ft
Dew Point 54 °F
Humidity 96%
Rainfall 0.00 in
Snow Depth Not available.
6:50 AM 4:58 PM
Waning Crescent, 21% visible
METAR KCSV 230253Z AUTO 01011G16KT 10SM OVC007 11/10 A2920 RMK AO2 RAB41E51 SLP880 P0001 60008 T01110100 58018
Pressure 29.18 in
Visibility 10.0 miles
Clouds Overcast 700 ft
Dew Point 54 °F
Humidity 96%
Rainfall 0.00 in
Snow Depth Not available.
6:50 AM 4:58 PM
Waning Crescent, 21% visible
METAR KCSV 230253Z AUTO 01011G16KT 10SM OVC007 11/10 A2920 RMK AO2 RAB41E51 SLP880 P0001 60008 T01110100 58018

Get Your Daily Forecast Email!

Thanks for signing up!

Be on the lookout for a verification email in your inbox.

You'll start receiving the daily forecast at 8 AM.

×

10-Day Weather Forecast

Almanac

Astronomy

Jan. 22, 2017 Rise Set
Actual Time
Civil Twilight
Nautical Twilight
Astronomical Twilight
Moon
Length of Visible Light
Length of Day
Tomorrow will be .
, % of the Moon is Illuminated

Today's Extremes

State Highs State Lows

Community

WunderPhotos

Upload Photos

1,962,540 photos uploaded!

WunderBlog® & News

Nearby

Air Quality

  Air Quality AQ Index Pollutant
Not available.

Snow Depth

Station Depth Elevation

Earthquake Activity

City Distance Mag. Time & Date
Minimum magnitude displayed is 2.5.

Coastal Water Temperatures

Place Temperature

Stations

Nearby Weather Stations

Station Location Temp. Windchill Dew Point Humidity Wind Precip. Elev Updated Type
                   

Watches & Warnings

There are currently no watches in effect.